Lakemont, New York
Current Conditions -  °F | °C
As of 9:53 AM on Saturday 25 Oct 2014 (Local Time) from KPEO Reporting Station
Broken Clouds Broken Clouds  
Wind Chill: 54°   Ceiling: 4800
Heat Index: 54°   Visibility: 10mi
Dew Point: 44°   Wind: 9mph
Humidity: 69%   Direction: 210°SSW
Pressure: 29.82"   Gusts: NA
Location:  42.52°N, 76.93°W
Report Text: KPEO 251353Z AUTO 21008KT 10SM BKN048 12/07 A2982 RMK AO2 SLP098 T01220067
Loading
Personal Weather Stations






























Interactive Weather Map
Tropical Storm Tracking
New forecast layout! Learn more

10-Day Weather Forecast

Advertisements
Track Severe Weather on mobile